TKJ5NF LTCG-LTFJ
Flight info
| Callsign | TKJ5NF |
|---|---|
| Flight time | 1h 15m |
| Altitude | 36000 |
| Route | TEMEL UW71 CRM DCT DEREL UT79 NAMAN |
| Aircraft | A321/M-SDE3FGHIRWY/LB1 |
Departure
| Time | 2026-05-04 18:07 |
|---|---|
| Airport | Trabzon International Airport (LTCG) |
Arrival
| Time | 2026-05-04 19:22 |
|---|---|
| Airport | Istanbul Sabiha Gökçen International Airport (LTFJ) |
| Time | Latitude | Longitude | Altitude | Speed | Heading |
|---|---|---|---|---|---|
| 2026-05-04 17:56 | 40.99588 | 39.78094 | 112 ft | 3 kts | 202° |
| 2026-05-04 17:57 | 40.99605 | 39.78104 | 112 ft | 3 kts | 178° |
| 2026-05-04 17:57 | 40.99623 | 39.78095 | 112 ft | 3 kts | 116° |
| 2026-05-04 17:57 | 40.99625 | 39.78088 | 112 ft | 0 kts | 108° |
| 2026-05-04 18:00 | 40.99625 | 39.78091 | 115 ft | 1 kts | 103° |
| 2026-05-04 18:00 | 40.99623 | 39.78108 | 113 ft | 3 kts | 98° |
| 2026-05-04 18:00 | 40.99618 | 39.78141 | 115 ft | 5 kts | 106° |
| 2026-05-04 18:00 | 40.99605 | 39.78188 | 115 ft | 6 kts | 111° |
| 2026-05-04 18:01 | 40.99586 | 39.78250 | 112 ft | 8 kts | 112° |
| 2026-05-04 18:01 | 40.99563 | 39.78324 | 115 ft | 9 kts | 112° |
| 2026-05-04 18:01 | 40.99537 | 39.78409 | 115 ft | 11 kts | 112° |
| 2026-05-04 18:02 | 40.99472 | 39.78618 | 115 ft | 14 kts | 112° |
| 2026-05-04 18:02 | 40.99434 | 39.78740 | 115 ft | 15 kts | 112° |
| 2026-05-04 18:02 | 40.99393 | 39.78872 | 115 ft | 16 kts | 112° |
| 2026-05-04 18:02 | 40.99346 | 39.79025 | 107 ft | 22 kts | 112° |
| 2026-05-04 18:03 | 40.99341 | 39.79132 | 102 ft | 7 kts | 69° |
| 2026-05-04 18:03 | 40.99357 | 39.79189 | 104 ft | 6 kts | 69° |
| 2026-05-04 18:03 | 40.99372 | 39.79238 | 105 ft | 5 kts | 69° |
| 2026-05-04 18:03 | 40.99385 | 39.79294 | 106 ft | 12 kts | 79° |
| 2026-05-04 18:04 | 40.99360 | 39.79453 | 107 ft | 20 kts | 111° |
| 2026-05-04 18:04 | 40.99308 | 39.79620 | 109 ft | 20 kts | 112° |
| 2026-05-04 18:04 | 40.99196 | 39.79981 | 107 ft | 22 kts | 112° |
| 2026-05-04 18:05 | 40.99131 | 39.80181 | 104 ft | 24 kts | 122° |
| 2026-05-04 18:05 | 40.99030 | 39.80325 | 103 ft | 16 kts | 119° |
| 2026-05-04 18:05 | 40.99066 | 39.80375 | 102 ft | 10 kts | 321° |
| 2026-05-04 18:05 | 40.99096 | 39.80299 | 102 ft | 0 kts | 292° |
| 2026-05-04 18:06 | 40.99175 | 39.80042 | 106 ft | 68 kts | 292° |
| 2026-05-04 18:06 | 40.99448 | 39.79163 | 105 ft | 135 kts | 292° |
| 2026-05-04 18:06 | 40.99860 | 39.77828 | 375 ft | 164 kts | 292° |
| 2026-05-04 18:07 | 41.00331 | 39.76452 | 1094 ft | 166 kts | 296° |
| 2026-05-04 18:07 | 41.00847 | 39.75070 | 1773 ft | 169 kts | 297° |
| 2026-05-04 18:07 | 41.01387 | 39.73658 | 2222 ft | 180 kts | 297° |
| 2026-05-04 18:07 | 41.01979 | 39.72084 | 2485 ft | 202 kts | 297° |
| 2026-05-04 18:08 | 41.02631 | 39.70330 | 2703 ft | 224 kts | 297° |
| 2026-05-04 18:08 | 41.03351 | 39.68379 | 2891 ft | 248 kts | 297° |
| 2026-05-04 18:08 | 41.04140 | 39.66221 | 3235 ft | 269 kts | 297° |
| 2026-05-04 18:08 | 41.04953 | 39.63979 | 3870 ft | 277 kts | 297° |
| 2026-05-04 18:09 | 41.06627 | 39.59316 | 5383 ft | 283 kts | 294° |
| 2026-05-04 18:09 | 41.06609 | 39.54226 | 6970 ft | 283 kts | 248° |
| 2026-05-04 18:10 | 41.05893 | 39.51813 | 7799 ft | 281 kts | 248° |
| 2026-05-04 18:10 | 41.05182 | 39.49406 | 8608 ft | 279 kts | 247° |
| 2026-05-04 18:10 | 41.04477 | 39.47003 | 9386 ft | 280 kts | 247° |
| 2026-05-04 18:10 | 41.03771 | 39.44596 | 10122 ft | 282 kts | 247° |
| 2026-05-04 18:11 | 41.03082 | 39.42146 | 10765 ft | 286 kts | 252° |
| 2026-05-04 18:11 | 41.02759 | 39.39535 | 11412 ft | 291 kts | 266° |
| 2026-05-04 18:11 | 41.02940 | 39.36835 | 12043 ft | 297 kts | 277° |
| 2026-05-04 18:11 | 41.03283 | 39.34119 | 12676 ft | 301 kts | 277° |
| 2026-05-04 18:12 | 41.03623 | 39.31367 | 13312 ft | 304 kts | 277° |
| 2026-05-04 18:12 | 41.03961 | 39.28583 | 13922 ft | 308 kts | 277° |
| 2026-05-04 18:12 | 41.04297 | 39.25774 | 14497 ft | 311 kts | 277° |
| 2026-05-04 18:12 | 41.04633 | 39.22934 | 15077 ft | 313 kts | 277° |
| 2026-05-04 18:13 | 41.04972 | 39.20070 | 15651 ft | 316 kts | 277° |
| 2026-05-04 18:13 | 41.05314 | 39.17184 | 16237 ft | 318 kts | 277° |
| 2026-05-04 18:13 | 41.05988 | 39.11306 | 17133 ft | 333 kts | 276° |
| 2026-05-04 18:14 | 41.06284 | 39.08225 | 17271 ft | 349 kts | 275° |
| 2026-05-04 18:14 | 41.06575 | 39.04965 | 17421 ft | 364 kts | 275° |
| 2026-05-04 18:14 | 41.06870 | 39.01579 | 17706 ft | 374 kts | 275° |
| 2026-05-04 18:15 | 41.07481 | 38.94666 | 18643 ft | 381 kts | 275° |
| 2026-05-04 18:15 | 41.08115 | 38.87662 | 19619 ft | 384 kts | 275° |
| 2026-05-04 18:15 | 41.08438 | 38.84127 | 20080 ft | 387 kts | 275° |
| 2026-05-04 18:16 | 41.08763 | 38.80569 | 20513 ft | 390 kts | 275° |
| 2026-05-04 18:16 | 41.09087 | 38.76986 | 20979 ft | 392 kts | 275° |
| 2026-05-04 18:16 | 41.09406 | 38.73387 | 21442 ft | 394 kts | 275° |
| 2026-05-04 18:17 | 41.10046 | 38.66133 | 22353 ft | 398 kts | 275° |
| 2026-05-04 18:17 | 41.10365 | 38.62481 | 22800 ft | 400 kts | 275° |
| 2026-05-04 18:17 | 41.10996 | 38.55123 | 23648 ft | 404 kts | 275° |
| 2026-05-04 18:18 | 41.11308 | 38.51410 | 24015 ft | 406 kts | 274° |
| 2026-05-04 18:18 | 41.11622 | 38.47677 | 24333 ft | 410 kts | 274° |
| 2026-05-04 18:18 | 41.11935 | 38.43905 | 24652 ft | 413 kts | 274° |
| 2026-05-04 18:18 | 41.12247 | 38.40109 | 24998 ft | 415 kts | 274° |
| 2026-05-04 18:19 | 41.12871 | 38.32456 | 25691 ft | 420 kts | 274° |
| 2026-05-04 18:19 | 41.13188 | 38.28596 | 26031 ft | 422 kts | 274° |
| 2026-05-04 18:19 | 41.13507 | 38.24710 | 26367 ft | 424 kts | 274° |
| 2026-05-04 18:20 | 41.13828 | 38.20806 | 26698 ft | 427 kts | 274° |
| 2026-05-04 18:20 | 41.14151 | 38.16883 | 27016 ft | 429 kts | 274° |
| 2026-05-04 18:20 | 41.14477 | 38.12940 | 27343 ft | 431 kts | 274° |
| 2026-05-04 18:20 | 41.14805 | 38.08965 | 27614 ft | 435 kts | 274° |
| 2026-05-04 18:21 | 41.15131 | 38.04964 | 27901 ft | 438 kts | 274° |
| 2026-05-04 18:21 | 41.15453 | 38.00933 | 28212 ft | 440 kts | 274° |
| 2026-05-04 18:21 | 41.15773 | 37.96880 | 28519 ft | 443 kts | 274° |
| 2026-05-04 18:21 | 41.16093 | 37.92807 | 28820 ft | 445 kts | 274° |
| 2026-05-04 18:22 | 41.16415 | 37.88717 | 29116 ft | 447 kts | 274° |
| 2026-05-04 18:22 | 41.16749 | 37.84598 | 29407 ft | 449 kts | 274° |
| 2026-05-04 18:22 | 41.17099 | 37.80464 | 29695 ft | 452 kts | 274° |
| 2026-05-04 18:22 | 41.17452 | 37.76363 | 29961 ft | 454 kts | 274° |
| 2026-05-04 18:23 | 41.17811 | 37.72192 | 30177 ft | 456 kts | 275° |
| 2026-05-04 18:23 | 41.18171 | 37.67998 | 30367 ft | 458 kts | 275° |
| 2026-05-04 18:23 | 41.18531 | 37.63786 | 30554 ft | 460 kts | 275° |
| 2026-05-04 18:23 | 41.18870 | 37.59554 | 30736 ft | 462 kts | 274° |
| 2026-05-04 18:24 | 41.19129 | 37.55300 | 30931 ft | 463 kts | 272° |
| 2026-05-04 18:24 | 41.19365 | 37.51039 | 31179 ft | 463 kts | 272° |
| 2026-05-04 18:24 | 41.19631 | 37.46784 | 31414 ft | 463 kts | 273° |
| 2026-05-04 18:24 | 41.19927 | 37.42526 | 31673 ft | 463 kts | 274° |
| 2026-05-04 18:25 | 41.20245 | 37.38272 | 31909 ft | 463 kts | 274° |
| 2026-05-04 18:25 | 41.20573 | 37.34009 | 32106 ft | 465 kts | 274° |
| 2026-05-04 18:25 | 41.20903 | 37.29734 | 32293 ft | 466 kts | 274° |
| 2026-05-04 18:25 | 41.21227 | 37.25452 | 32496 ft | 466 kts | 274° |
| 2026-05-04 18:26 | 41.21544 | 37.21162 | 32738 ft | 467 kts | 274° |
| 2026-05-04 18:26 | 41.21866 | 37.16878 | 32976 ft | 467 kts | 274° |
| 2026-05-04 18:26 | 41.22198 | 37.12583 | 33195 ft | 467 kts | 274° |
| 2026-05-04 18:26 | 41.22535 | 37.08296 | 33420 ft | 467 kts | 275° |
| 2026-05-04 18:27 | 41.22874 | 37.04004 | 33647 ft | 467 kts | 275° |
| 2026-05-04 18:27 | 41.23209 | 36.99712 | 33874 ft | 467 kts | 275° |
| 2026-05-04 18:27 | 41.23541 | 36.95412 | 34026 ft | 469 kts | 275° |
| 2026-05-04 18:27 | 41.23871 | 36.91103 | 34189 ft | 469 kts | 275° |
| 2026-05-04 18:28 | 41.24198 | 36.86793 | 34375 ft | 469 kts | 275° |
| 2026-05-04 18:28 | 41.24523 | 36.82475 | 34570 ft | 469 kts | 274° |
| 2026-05-04 18:28 | 41.24845 | 36.78170 | 34767 ft | 468 kts | 274° |
| 2026-05-04 18:28 | 41.25166 | 36.73862 | 34965 ft | 468 kts | 274° |
| 2026-05-04 18:29 | 41.25486 | 36.69559 | 35163 ft | 467 kts | 274° |
| 2026-05-04 18:29 | 41.25803 | 36.65264 | 35353 ft | 467 kts | 274° |
| 2026-05-04 18:29 | 41.26118 | 36.60968 | 35546 ft | 467 kts | 275° |
| 2026-05-04 18:29 | 41.26398 | 36.56674 | 35705 ft | 466 kts | 271° |
| 2026-05-04 18:30 | 41.25841 | 36.48126 | 35914 ft | 464 kts | 261° |
| 2026-05-04 18:30 | 41.25381 | 36.43890 | 35920 ft | 463 kts | 261° |
| 2026-05-04 18:31 | 41.24461 | 36.35484 | 35918 ft | 462 kts | 261° |
| 2026-05-04 18:31 | 41.23537 | 36.27035 | 35917 ft | 462 kts | 261° |
| 2026-05-04 18:32 | 41.22612 | 36.18592 | 35910 ft | 462 kts | 261° |
| 2026-05-04 18:32 | 41.21683 | 36.10141 | 35900 ft | 463 kts | 261° |
| 2026-05-04 18:33 | 41.20743 | 36.01673 | 35898 ft | 464 kts | 261° |
| 2026-05-04 18:33 | 41.19786 | 35.93189 | 35893 ft | 465 kts | 260° |
| 2026-05-04 18:34 | 41.18825 | 35.84695 | 35895 ft | 465 kts | 260° |
| 2026-05-04 18:34 | 41.17872 | 35.76259 | 35905 ft | 465 kts | 261° |
| 2026-05-04 18:35 | 41.16906 | 35.67766 | 35901 ft | 465 kts | 260° |
| 2026-05-04 18:35 | 41.15926 | 35.59272 | 35903 ft | 466 kts | 261° |
| 2026-05-04 18:36 | 41.14937 | 35.50772 | 35889 ft | 466 kts | 261° |
| 2026-05-04 18:36 | 41.13942 | 35.42267 | 35892 ft | 467 kts | 261° |
| 2026-05-04 18:37 | 41.12946 | 35.33751 | 35888 ft | 467 kts | 261° |
| 2026-05-04 18:37 | 41.12107 | 35.26612 | 35886 ft | 468 kts | 260° |
| 2026-05-04 18:38 | 41.11099 | 35.18145 | 35889 ft | 468 kts | 260° |
| 2026-05-04 18:38 | 41.10074 | 35.09623 | 35890 ft | 468 kts | 260° |
| 2026-05-04 18:39 | 41.09046 | 35.01094 | 35886 ft | 468 kts | 260° |
| 2026-05-04 18:39 | 41.08017 | 34.92564 | 35887 ft | 468 kts | 260° |
| 2026-05-04 18:40 | 41.06983 | 34.84048 | 35877 ft | 468 kts | 260° |
| 2026-05-04 18:40 | 41.05938 | 34.75536 | 35880 ft | 468 kts | 260° |
| 2026-05-04 18:41 | 41.04887 | 34.67030 | 35876 ft | 468 kts | 261° |
| 2026-05-04 18:41 | 41.03826 | 34.58522 | 35879 ft | 468 kts | 260° |
| 2026-05-04 18:42 | 41.02764 | 34.50015 | 35879 ft | 468 kts | 261° |
| 2026-05-04 18:42 | 41.01695 | 34.41528 | 35889 ft | 467 kts | 261° |
| 2026-05-04 18:43 | 41.00620 | 34.33044 | 35885 ft | 467 kts | 261° |
| 2026-05-04 18:43 | 40.99540 | 34.24575 | 35893 ft | 467 kts | 260° |
| 2026-05-04 18:44 | 40.98449 | 34.16101 | 35886 ft | 467 kts | 261° |
| 2026-05-04 18:44 | 40.97354 | 34.07627 | 35904 ft | 467 kts | 261° |
| 2026-05-04 18:45 | 40.96263 | 33.99153 | 35903 ft | 467 kts | 261° |
| 2026-05-04 18:45 | 40.95164 | 33.90678 | 35905 ft | 467 kts | 261° |
| 2026-05-04 18:46 | 40.94055 | 33.82217 | 35910 ft | 467 kts | 261° |
| 2026-05-04 18:46 | 40.92939 | 33.73755 | 35913 ft | 467 kts | 261° |
| 2026-05-04 18:47 | 40.91822 | 33.65348 | 35918 ft | 467 kts | 261° |
| 2026-05-04 18:47 | 40.90690 | 33.56888 | 35920 ft | 467 kts | 261° |
| 2026-05-04 18:48 | 40.89553 | 33.48432 | 35939 ft | 467 kts | 261° |
| 2026-05-04 18:48 | 40.88411 | 33.39985 | 35938 ft | 467 kts | 261° |
| 2026-05-04 18:49 | 40.87262 | 33.31531 | 35932 ft | 467 kts | 261° |
| 2026-05-04 18:49 | 40.86112 | 33.23087 | 35942 ft | 467 kts | 261° |
| 2026-05-04 18:50 | 40.84944 | 33.14624 | 35934 ft | 468 kts | 262° |
| 2026-05-04 18:50 | 40.83771 | 33.06162 | 35945 ft | 469 kts | 262° |
| 2026-05-04 18:51 | 40.82597 | 32.97689 | 35945 ft | 469 kts | 262° |
| 2026-05-04 18:51 | 40.81418 | 32.89209 | 35956 ft | 470 kts | 262° |
| 2026-05-04 18:52 | 40.80227 | 32.80727 | 35960 ft | 470 kts | 262° |
| 2026-05-04 18:52 | 40.79027 | 32.72260 | 35954 ft | 469 kts | 262° |
| 2026-05-04 18:53 | 40.77820 | 32.63781 | 35962 ft | 469 kts | 262° |
| 2026-05-04 18:53 | 40.76616 | 32.55311 | 35965 ft | 469 kts | 262° |
| 2026-05-04 18:54 | 40.75394 | 32.46849 | 35971 ft | 470 kts | 262° |
| 2026-05-04 18:54 | 40.74168 | 32.38383 | 35968 ft | 470 kts | 262° |
| 2026-05-04 18:55 | 40.72945 | 32.29926 | 35717 ft | 470 kts | 262° |
| 2026-05-04 18:55 | 40.72022 | 32.21519 | 35217 ft | 461 kts | 274° |
| 2026-05-04 18:55 | 40.72212 | 32.17324 | 34983 ft | 455 kts | 283° |
| 2026-05-04 18:56 | 40.72890 | 32.13294 | 34748 ft | 448 kts | 292° |
| 2026-05-04 18:56 | 40.73873 | 32.09412 | 34518 ft | 445 kts | 294° |
| 2026-05-04 18:56 | 40.74848 | 32.05556 | 34141 ft | 442 kts | 294° |
| 2026-05-04 18:56 | 40.75808 | 32.01717 | 33614 ft | 439 kts | 294° |
| 2026-05-04 18:57 | 40.76755 | 31.97905 | 33149 ft | 435 kts | 294° |
| 2026-05-04 18:57 | 40.77690 | 31.94128 | 32682 ft | 431 kts | 295° |
| 2026-05-04 18:57 | 40.78613 | 31.90393 | 32208 ft | 425 kts | 295° |
| 2026-05-04 18:57 | 40.79524 | 31.86702 | 31746 ft | 421 kts | 296° |
| 2026-05-04 18:58 | 40.80427 | 31.83049 | 31281 ft | 417 kts | 296° |
| 2026-05-04 18:58 | 40.81321 | 31.79430 | 30839 ft | 413 kts | 296° |
| 2026-05-04 18:58 | 40.82207 | 31.75839 | 30391 ft | 410 kts | 296° |
| 2026-05-04 18:58 | 40.83087 | 31.72271 | 29930 ft | 407 kts | 297° |
| 2026-05-04 18:59 | 40.83960 | 31.68739 | 29467 ft | 402 kts | 297° |
| 2026-05-04 18:59 | 40.84816 | 31.65250 | 29052 ft | 396 kts | 297° |
| 2026-05-04 18:59 | 40.85655 | 31.61811 | 28627 ft | 390 kts | 296° |
| 2026-05-04 18:59 | 40.86478 | 31.58428 | 28239 ft | 384 kts | 296° |
| 2026-05-04 19:00 | 40.87293 | 31.55086 | 27849 ft | 379 kts | 297° |
| 2026-05-04 19:00 | 40.88098 | 31.51793 | 27474 ft | 374 kts | 296° |
| 2026-05-04 19:00 | 40.88887 | 31.48547 | 27100 ft | 368 kts | 297° |
| 2026-05-04 19:00 | 40.89665 | 31.45346 | 26730 ft | 364 kts | 297° |
| 2026-05-04 19:01 | 40.90441 | 31.42165 | 26354 ft | 362 kts | 297° |
| 2026-05-04 19:01 | 40.91194 | 31.39003 | 25990 ft | 360 kts | 296° |
| 2026-05-04 19:01 | 40.91917 | 31.35834 | 25613 ft | 358 kts | 295° |
| 2026-05-04 19:01 | 40.92618 | 31.32690 | 25195 ft | 356 kts | 295° |
| 2026-05-04 19:02 | 40.93300 | 31.29604 | 24859 ft | 353 kts | 295° |
| 2026-05-04 19:02 | 40.93988 | 31.26496 | 24473 ft | 351 kts | 295° |
| 2026-05-04 19:02 | 40.94673 | 31.23411 | 24091 ft | 349 kts | 295° |
| 2026-05-04 19:02 | 40.95355 | 31.20344 | 23701 ft | 346 kts | 295° |
| 2026-05-04 19:03 | 40.96032 | 31.17297 | 23272 ft | 344 kts | 295° |
| 2026-05-04 19:03 | 40.96703 | 31.14277 | 22868 ft | 341 kts | 295° |
| 2026-05-04 19:03 | 40.97178 | 31.11185 | 22712 ft | 349 kts | 282° |
| 2026-05-04 19:03 | 40.97364 | 31.07973 | 22627 ft | 351 kts | 282° |
| 2026-05-04 19:04 | 40.97540 | 31.04752 | 22539 ft | 350 kts | 282° |
| 2026-05-04 19:04 | 40.97713 | 31.01539 | 22457 ft | 350 kts | 282° |
| 2026-05-04 19:04 | 40.97884 | 30.98328 | 22260 ft | 348 kts | 282° |
| 2026-05-04 19:04 | 40.98045 | 30.95150 | 21866 ft | 345 kts | 282° |
| 2026-05-04 19:05 | 40.98203 | 30.91986 | 21457 ft | 343 kts | 282° |
| 2026-05-04 19:05 | 40.98362 | 30.88845 | 21060 ft | 341 kts | 282° |
| 2026-05-04 19:05 | 40.98523 | 30.85726 | 20654 ft | 339 kts | 281° |
| 2026-05-04 19:05 | 40.98684 | 30.82624 | 20261 ft | 337 kts | 281° |
| 2026-05-04 19:06 | 40.98844 | 30.79539 | 19859 ft | 335 kts | 281° |
| 2026-05-04 19:06 | 40.99004 | 30.76476 | 19450 ft | 332 kts | 281° |
| 2026-05-04 19:06 | 40.99163 | 30.73435 | 19071 ft | 330 kts | 281° |
| 2026-05-04 19:06 | 40.99320 | 30.70409 | 18685 ft | 329 kts | 281° |
| 2026-05-04 19:07 | 40.99474 | 30.67396 | 18296 ft | 327 kts | 281° |
| 2026-05-04 19:07 | 40.99625 | 30.64399 | 17858 ft | 325 kts | 280° |
| 2026-05-04 19:07 | 40.99772 | 30.61470 | 17494 ft | 321 kts | 280° |
| 2026-05-04 19:07 | 40.99917 | 30.58526 | 17106 ft | 318 kts | 280° |
| 2026-05-04 19:08 | 41.00059 | 30.55612 | 16724 ft | 316 kts | 279° |
| 2026-05-04 19:08 | 41.00199 | 30.52717 | 16349 ft | 314 kts | 279° |
| 2026-05-04 19:08 | 41.00338 | 30.49845 | 15984 ft | 312 kts | 280° |
| 2026-05-04 19:08 | 41.00478 | 30.46993 | 15611 ft | 309 kts | 280° |
| 2026-05-04 19:09 | 41.00578 | 30.44963 | 15352 ft | 308 kts | 280° |
| 2026-05-04 19:09 | 41.00715 | 30.42140 | 14983 ft | 306 kts | 280° |
| 2026-05-04 19:09 | 41.00849 | 30.39334 | 14616 ft | 304 kts | 279° |
| 2026-05-04 19:09 | 41.00982 | 30.36550 | 14270 ft | 302 kts | 279° |
| 2026-05-04 19:10 | 41.01112 | 30.33784 | 13912 ft | 301 kts | 279° |
| 2026-05-04 19:10 | 41.01242 | 30.31027 | 13521 ft | 299 kts | 279° |
| 2026-05-04 19:10 | 41.01370 | 30.28293 | 13146 ft | 296 kts | 279° |
| 2026-05-04 19:10 | 41.01494 | 30.25615 | 12809 ft | 293 kts | 279° |
| 2026-05-04 19:11 | 41.01619 | 30.22930 | 12457 ft | 291 kts | 279° |
| 2026-05-04 19:11 | 41.01742 | 30.20266 | 12099 ft | 289 kts | 278° |
| 2026-05-04 19:11 | 41.01865 | 30.17608 | 11724 ft | 288 kts | 278° |
| 2026-05-04 19:11 | 41.01987 | 30.14978 | 11375 ft | 285 kts | 278° |
| 2026-05-04 19:12 | 41.02105 | 30.12369 | 11033 ft | 283 kts | 278° |
| 2026-05-04 19:12 | 41.02337 | 30.07215 | 10360 ft | 278 kts | 277° |
| 2026-05-04 19:12 | 41.02449 | 30.04668 | 10026 ft | 276 kts | 277° |
| 2026-05-04 19:13 | 41.02563 | 30.02137 | 9666 ft | 274 kts | 277° |
| 2026-05-04 19:13 | 41.02675 | 29.99636 | 9329 ft | 270 kts | 277° |
| 2026-05-04 19:13 | 41.02784 | 29.97161 | 8998 ft | 267 kts | 277° |
| 2026-05-04 19:13 | 41.02890 | 29.94728 | 8680 ft | 263 kts | 277° |
| 2026-05-04 19:14 | 41.02993 | 29.92319 | 8352 ft | 261 kts | 278° |
| 2026-05-04 19:14 | 41.03096 | 29.89936 | 8037 ft | 258 kts | 278° |
| 2026-05-04 19:14 | 41.03198 | 29.87572 | 7720 ft | 256 kts | 278° |
| 2026-05-04 19:14 | 41.03302 | 29.85228 | 7410 ft | 254 kts | 278° |
| 2026-05-04 19:15 | 41.03404 | 29.82899 | 7099 ft | 252 kts | 278° |
| 2026-05-04 19:15 | 41.03504 | 29.80581 | 6787 ft | 251 kts | 278° |
| 2026-05-04 19:15 | 41.03599 | 29.78276 | 6478 ft | 250 kts | 278° |
| 2026-05-04 19:15 | 41.03695 | 29.75989 | 6242 ft | 245 kts | 278° |
| 2026-05-04 19:16 | 41.03788 | 29.73770 | 6054 ft | 238 kts | 278° |
| 2026-05-04 19:16 | 41.03703 | 29.71586 | 6016 ft | 259 kts | 257° |
| 2026-05-04 19:16 | 41.02899 | 29.69397 | 5968 ft | 263 kts | 244° |
| 2026-05-04 19:16 | 41.02043 | 29.67323 | 5820 ft | 252 kts | 248° |
| 2026-05-04 19:17 | 41.01276 | 29.65255 | 5506 ft | 249 kts | 249° |
| 2026-05-04 19:17 | 41.00532 | 29.63194 | 5309 ft | 251 kts | 249° |
| 2026-05-04 19:17 | 40.99751 | 29.61031 | 5222 ft | 259 kts | 249° |
| 2026-05-04 19:17 | 40.98984 | 29.58938 | 5108 ft | 247 kts | 249° |
| 2026-05-04 19:18 | 40.98241 | 29.56900 | 4784 ft | 245 kts | 249° |
| 2026-05-04 19:18 | 40.97502 | 29.54869 | 4407 ft | 246 kts | 249° |
| 2026-05-04 19:18 | 40.96757 | 29.52827 | 4008 ft | 247 kts | 249° |
| 2026-05-04 19:18 | 40.96004 | 29.50764 | 3615 ft | 248 kts | 249° |
| 2026-05-04 19:19 | 40.95253 | 29.48712 | 3215 ft | 246 kts | 249° |
| 2026-05-04 19:19 | 40.94522 | 29.46719 | 2850 ft | 233 kts | 249° |
| 2026-05-04 19:19 | 40.93835 | 29.44848 | 2475 ft | 220 kts | 249° |
| 2026-05-04 19:19 | 40.93187 | 29.43076 | 2128 ft | 209 kts | 249° |
| 2026-05-04 19:20 | 40.92568 | 29.41385 | 1814 ft | 197 kts | 248° |
| 2026-05-04 19:20 | 40.91998 | 29.39833 | 1504 ft | 179 kts | 248° |
| 2026-05-04 19:20 | 40.91486 | 29.38439 | 1222 ft | 160 kts | 247° |
| 2026-05-04 19:20 | 40.91174 | 29.37587 | 1034 ft | 151 kts | 246° |
| 2026-05-04 19:21 | 40.90730 | 29.36362 | 784 ft | 147 kts | 246° |
| 2026-05-04 19:21 | 40.90288 | 29.35157 | 583 ft | 145 kts | 246° |
| 2026-05-04 19:21 | 40.89846 | 29.33959 | 362 ft | 144 kts | 245° |
| 2026-05-04 19:21 | 40.89435 | 29.32840 | 301 ft | 116 kts | 244° |
| 2026-05-04 19:22 | 40.89157 | 29.32087 | 306 ft | 66 kts | 244° |
| 2026-05-04 19:22 | 40.89083 | 29.31848 | 311 ft | 5 kts | 304° |
| 2026-05-04 19:22 | 40.89109 | 29.31798 | 308 ft | 9 kts | 305° |
| 2026-05-04 19:22 | 40.89123 | 29.31712 | 310 ft | 11 kts | 275° |
| 2026-05-04 19:23 | 40.89150 | 29.31620 | 307 ft | 12 kts | 328° |
| 2026-05-04 19:23 | 40.89213 | 29.31670 | 308 ft | 13 kts | 60° |
| 2026-05-04 19:23 | 40.89255 | 29.31779 | 309 ft | 14 kts | 64° |
| 2026-05-04 19:23 | 40.89302 | 29.31902 | 308 ft | 16 kts | 57° |
| 2026-05-04 19:24 | 40.89395 | 29.31921 | 307 ft | 16 kts | 323° |
| 2026-05-04 19:24 | 40.89497 | 29.31840 | 308 ft | 18 kts | 334° |
| 2026-05-04 19:24 | 40.89550 | 29.31776 | 308 ft | 8 kts | 272° |
| 2026-05-04 19:24 | 40.89539 | 29.31733 | 308 ft | 0 kts | 240° |